Time;durP1;ratioP1;P1;durP2;ratioP2;P2;SDS_P1;SDS_P2;PMS_P1;PMS_P2;Temp;Humidity;BMP_temperature;BMP_pressure;BME280_temperature;BME280_humidity;BME280_pressure;Samples;Min_cycle;Max_cycle;Signal;HPM_P1;HPM_P2
2021/01/14 00:01:22;;;;;;;1.77;0.40;;;21.20;38.90;;;;;;5098433;28;20114;-87
2021/01/14 00:03:47;;;;;;;0.90;0.30;;;21.10;38.80;;;;;;5098995;28;20035;-88
2021/01/14 00:06:13;;;;;;;1.45;0.50;;;21.10;38.90;;;;;;5098266;28;20343;-87
2021/01/14 00:08:39;;;;;;;1.23;0.40;;;21.10;38.90;;;;;;5081654;28;20024;-87
2021/01/14 00:11:04;;;;;;;1.35;0.77;;;21.10;38.90;;;;;;5085346;28;20027;-86
2021/01/14 00:13:30;;;;;;;1.08;0.40;;;21.00;38.80;;;;;;5081249;28;20370;-87
2021/01/14 00:15:56;;;;;;;1.05;0.40;;;21.10;38.90;;;;;;5092230;28;20107;-87
2021/01/14 00:18:21;;;;;;;0.57;0.20;;;21.00;38.90;;;;;;5081012;28;20103;-88
2021/01/14 00:20:47;;;;;;;1.17;0.22;;;21.00;38.90;;;;;;5098739;28;20024;-88
2021/01/14 00:23:12;;;;;;;1.50;0.40;;;21.00;38.90;;;;;;5098240;28;20103;-88
2021/01/14 00:25:38;;;;;;;0.93;0.40;;;21.00;38.90;;;;;;5085976;28;20051;-87
2021/01/14 00:28:04;;;;;;;0.82;0.30;;;21.00;38.90;;;;;;5094045;28;20339;-87
2021/01/14 00:30:31;;;;;;;0.82;0.25;;;20.90;38.80;;;;;;5078951;28;20028;-88
2021/01/14 00:32:58;;;;;;;1.05;0.30;;;20.90;38.90;;;;;;5076152;28;20024;-86
2021/01/14 00:35:26;;;;;;;1.00;0.43;;;20.90;38.80;;;;;;5081137;28;20020;-85
2021/01/14 00:37:53;;;;;;;2.00;0.32;;;20.90;38.90;;;;;;5098226;28;20047;-87
2021/01/14 00:40:28;;;;;;;1.10;0.30;;;20.90;38.90;;;;;;5065448;28;20059;-87
2021/01/14 00:43:03;;;;;;;0.90;0.30;;;20.90;38.90;;;;;;5076713;28;20020;-85
2021/01/14 00:45:29;;;;;;;1.08;0.40;;;20.80;38.90;;;;;;5065621;28;20020;-86
2021/01/14 00:47:56;;;;;;;2.50;0.38;;;20.80;38.90;;;;;;5098232;28;20115;-86
2021/01/14 00:50:22;;;;;;;2.58;0.47;;;20.80;38.90;;;;;;5072936;28;20024;-86
2021/01/14 00:52:48;;;;;;;1.00;0.30;;;20.80;38.90;;;;;;5076763;28;20461;-84
2021/01/14 00:55:15;;;;;;;0.90;0.20;;;20.70;38.90;;;;;;5062358;28;20046;-87
2021/01/14 00:57:40;;;;;;;1.08;0.20;;;20.70;38.90;;;;;;5077240;28;20020;-87
2021/01/14 01:00:08;;;;;;;1.77;0.40;;;20.70;38.90;;;;;;5077348;28;20024;-86
2021/01/14 01:02:34;;;;;;;1.10;0.40;;;20.70;38.90;;;;;;5077257;28;20051;-87
2021/01/14 01:05:00;;;;;;;1.55;0.30;;;20.70;38.90;;;;;;5069395;28;20078;-86
2021/01/14 01:07:26;;;;;;;1.10;0.30;;;20.60;38.90;;;;;;5079737;28;20557;-87
2021/01/14 01:09:51;;;;;;;1.27;0.30;;;20.60;38.90;;;;;;5087307;28;20024;-86
2021/01/14 01:12:17;;;;;;;1.58;0.20;;;20.60;38.90;;;;;;5096086;28;20100;-88
2021/01/14 01:14:43;;;;;;;1.15;0.30;;;20.60;38.90;;;;;;5079341;28;20039;-87
2021/01/14 01:17:10;;;;;;;0.82;0.28;;;20.60;38.80;;;;;;5097940;28;20092;-86
2021/01/14 01:19:35;;;;;;;2.20;0.30;;;20.60;38.90;;;;;;5071952;28;20028;-86
2021/01/14 01:22:01;;;;;;;0.57;0.20;;;20.60;38.90;;;;;;5080463;28;20024;-87
2021/01/14 01:24:26;;;;;;;1.42;0.30;;;20.60;38.90;;;;;;5080281;28;20470;-87
2021/01/14 01:26:52;;;;;;;0.73;0.40;;;20.50;38.80;;;;;;5078863;28;20046;-87
2021/01/14 01:29:19;;;;;;;0.90;0.22;;;20.50;38.80;;;;;;5084945;28;20084;-87
2021/01/14 01:31:45;;;;;;;0.45;0.20;;;20.50;38.70;;;;;;5068734;28;20020;-84
2021/01/14 01:34:10;;;;;;;1.33;0.20;;;20.50;38.90;;;;;;5061914;28;20076;-85
2021/01/14 01:36:36;;;;;;;1.77;0.20;;;20.40;38.80;;;;;;5078223;28;20035;-85
2021/01/14 01:39:03;;;;;;;0.85;0.20;;;20.40;38.80;;;;;;5079529;28;20035;-86
2021/01/14 01:41:28;;;;;;;2.25;0.30;;;20.40;38.70;;;;;;5094481;28;20114;-85
2021/01/14 01:43:54;;;;;;;1.52;0.13;;;20.40;38.80;;;;;;5059561;28;20511;-84
2021/01/14 01:46:29;;;;;;;0.35;0.13;;;20.40;38.70;;;;;;5063935;28;20043;-85
2021/01/14 01:48:57;;;;;;;2.28;0.20;;;20.40;38.70;;;;;;5091006;28;20059;-84
2021/01/14 01:51:30;;;;;;;1.13;0.17;;;20.40;38.70;;;;;;5079568;28;20024;-85
2021/01/14 01:53:56;;;;;;;1.60;0.30;;;20.40;38.80;;;;;;5070424;28;20408;-84
2021/01/14 01:56:22;;;;;;;0.65;0.20;;;20.30;38.80;;;;;;5075411;28;20073;-85
2021/01/14 01:58:49;;;;;;;0.90;0.40;;;20.30;38.70;;;;;;5084813;28;20088;-85
2021/01/14 02:01:14;;;;;;;0.60;0.20;;;20.30;38.70;;;;;;5086829;28;20050;-85
2021/01/14 02:03:40;;;;;;;2.10;0.20;;;20.30;38.70;;;;;;5075922;28;20059;-85
2021/01/14 02:06:10;;;;;;;1.17;0.20;;;20.30;38.70;;;;;;5078804;28;20039;-84
2021/01/14 02:08:55;;;;;;;1.67;0.10;;;20.30;38.70;;;;;;5077166;28;20052;-85
2021/01/14 02:11:28;;;;;;;2.30;0.20;;;20.30;38.60;;;;;;5068922;28;20085;-85
2021/01/14 02:14:13;;;;;;;2.05;0.20;;;20.20;38.60;;;;;;5080135;28;20020;-85
2021/01/14 02:16:43;;;;;;;2.70;0.10;;;20.20;38.60;;;;;;5064098;28;20025;-83
2021/01/14 02:19:15;;;;;;;0.50;0.10;;;20.20;38.60;;;;;;5064859;28;20024;-84
2021/01/14 02:21:45;;;;;;;0.80;0.20;;;20.20;38.50;;;;;;5072728;28;20085;-86
2021/01/14 02:24:32;;;;;;;0.52;0.10;;;20.20;38.50;;;;;;5095900;28;20389;-84
2021/01/14 02:26:59;;;;;;;1.08;0.28;;;20.20;38.50;;;;;;5093102;28;20039;-84
2021/01/14 02:29:25;;;;;;;0.50;0.20;;;20.20;38.70;;;;;;5077135;28;20085;-84
2021/01/14 02:31:51;;;;;;;1.15;0.22;;;20.20;38.40;;;;;;5075573;28;20028;-84
2021/01/14 02:34:16;;;;;;;0.98;0.13;;;20.20;38.70;;;;;;5076954;28;20046;-84
2021/01/14 02:36:42;;;;;;;0.88;0.28;;;20.10;38.50;;;;;;5071446;28;20082;-85
2021/01/14 02:39:08;;;;;;;1.00;0.13;;;20.10;38.60;;;;;;5078008;28;20028;-85
2021/01/14 02:41:33;;;;;;;2.28;0.10;;;20.10;38.60;;;;;;5076155;28;20036;-85
2021/01/14 02:43:59;;;;;;;0.45;0.10;;;20.10;38.50;;;;;;5077460;28;20671;-85
2021/01/14 02:46:26;;;;;;;0.50;0.10;;;20.10;38.60;;;;;;5083078;28;20028;-85
2021/01/14 02:49:05;;;;;;;1.10;0.10;;;20.10;38.50;;;;;;5076872;28;20106;-85
2021/01/14 02:51:53;;;;;;;0.95;0.10;;;20.10;38.40;;;;;;5073509;28;20020;-84
2021/01/14 02:54:20;;;;;;;0.40;0.10;;;20.10;38.40;;;;;;5082563;28;20312;-85
2021/01/14 02:56:50;;;;;;;3.05;0.20;;;20.10;38.60;;;;;;5082579;28;20085;-85
2021/01/14 02:59:16;;;;;;;0.30;0.10;;;20.00;38.50;;;;;;5100321;28;20038;-84
2021/01/14 03:01:41;;;;;;;0.45;0.10;;;20.00;38.50;;;;;;5078829;28;20116;-85
2021/01/14 03:04:09;;;;;;;1.10;0.25;;;20.00;38.50;;;;;;5078384;28;20033;-84
2021/01/14 03:06:35;;;;;;;1.10;0.10;;;20.00;39.00;;;;;;5071680;28;20474;-84
2021/01/14 03:09:01;;;;;;;0.95;0.10;;;20.00;38.60;;;;;;5082473;28;20084;-84
2021/01/14 03:11:31;;;;;;;0.55;0.08;;;20.00;38.60;;;;;;5099567;28;20024;-84
2021/01/14 03:13:58;;;;;;;1.05;0.10;;;20.00;38.20;;;;;;5074808;28;20119;-84
2021/01/14 03:16:25;;;;;;;0.20;0.00;;;20.00;38.30;;;;;;5072240;28;20566;-85
2021/01/14 03:18:51;;;;;;;0.65;0.20;;;20.00;38.70;;;;;;5079970;28;20032;-84
2021/01/14 03:21:21;;;;;;;0.40;0.20;;;19.90;38.40;;;;;;5071316;28;20093;-84
2021/01/14 03:23:47;;;;;;;0.70;0.20;;;19.90;38.40;;;;;;5075212;28;20028;-82
2021/01/14 03:26:14;;;;;;;1.95;0.10;;;20.00;38.50;;;;;;5080184;28;20028;-86
2021/01/14 03:28:40;;;;;;;1.08;0.10;;;19.90;38.10;;;;;;5081845;28;20063;-86
2021/01/14 03:31:06;;;;;;;1.13;0.10;;;19.90;38.60;;;;;;5077746;28;20059;-87
2021/01/14 03:33:32;;;;;;;1.38;0.10;;;19.90;38.50;;;;;;5071570;28;20016;-84
2021/01/14 03:35:58;;;;;;;0.60;0.10;;;19.90;38.60;;;;;;5082323;28;20111;-87
2021/01/14 03:38:25;;;;;;;0.43;0.10;;;19.90;38.30;;;;;;5081836;28;20051;-86
2021/01/14 03:40:50;;;;;;;0.68;0.10;;;19.90;38.50;;;;;;5081909;28;20390;-83
2021/01/14 03:43:16;;;;;;;0.57;0.17;;;19.90;38.20;;;;;;5081248;28;20531;-84
2021/01/14 03:45:42;;;;;;;0.50;0.10;;;19.90;38.20;;;;;;5068105;28;20020;-85
2021/01/14 03:48:08;;;;;;;2.15;0.13;;;19.90;38.50;;;;;;5099724;28;20135;-86
2021/01/14 03:50:33;;;;;;;0.60;0.00;;;19.80;38.30;;;;;;5096320;28;20096;-86
2021/01/14 03:52:59;;;;;;;0.43;0.10;;;19.80;38.30;;;;;;5077993;28;20024;-87
2021/01/14 03:55:25;;;;;;;1.08;0.08;;;19.80;38.30;;;;;;5076505;28;20424;-85
2021/01/14 03:57:51;;;;;;;0.30;0.10;;;19.80;38.20;;;;;;5098305;28;20548;-88
2021/01/14 04:00:17;;;;;;;0.52;0.10;;;19.80;38.10;;;;;;5078651;28;20039;-86
2021/01/14 04:02:43;;;;;;;0.35;0.10;;;19.80;38.20;;;;;;5095774;28;20029;-84
2021/01/14 04:05:09;;;;;;;0.40;0.10;;;19.80;38.40;;;;;;5090999;28;20037;-85
2021/01/14 04:07:35;;;;;;;0.50;0.10;;;19.80;38.30;;;;;;5068969;28;20029;-85
2021/01/14 04:10:03;;;;;;;0.47;0.00;;;19.80;38.20;;;;;;5095959;28;20096;-85
2021/01/14 04:12:29;;;;;;;0.40;0.10;;;19.80;38.40;;;;;;5080886;28;20094;-83
2021/01/14 04:14:57;;;;;;;0.50;0.00;;;19.70;38.40;;;;;;5080139;28;20114;-83
2021/01/14 04:17:23;;;;;;;0.93;0.10;;;19.70;38.20;;;;;;5080464;28;20039;-86
2021/01/14 04:19:49;;;;;;;0.40;0.10;;;19.70;38.50;;;;;;5077732;28;20021;-85
2021/01/14 04:22:15;;;;;;;0.43;0.10;;;19.70;38.40;;;;;;5077775;28;20024;-84
2021/01/14 04:24:41;;;;;;;0.95;0.10;;;19.70;38.50;;;;;;5081835;28;20508;-85
2021/01/14 04:27:07;;;;;;;0.20;0.00;;;19.70;38.20;;;;;;5093148;28;20555;-86
2021/01/14 04:29:33;;;;;;;0.17;0.00;;;19.70;38.50;;;;;;5081489;28;20020;-85
2021/01/14 04:31:58;;;;;;;0.60;0.10;;;19.70;38.30;;;;;;5098367;28;20035;-86
2021/01/14 04:34:24;;;;;;;0.40;0.10;;;19.70;38.40;;;;;;5081339;28;20031;-86
2021/01/14 04:37:00;;;;;;;0.93;0.10;;;19.70;38.40;;;;;;5098695;28;20027;-86
2021/01/14 04:39:26;;;;;;;0.38;0.10;;;19.70;38.60;;;;;;5081422;28;20136;-86
2021/01/14 04:41:58;;;;;;;0.32;0.03;;;19.70;38.30;;;;;;5081456;28;20131;-86
2021/01/14 04:44:27;;;;;;;0.50;0.10;;;19.70;38.60;;;;;;5098050;28;20040;-85
2021/01/14 04:47:06;;;;;;;0.60;0.10;;;19.70;38.50;;;;;;5098183;28;20508;-86
2021/01/14 04:49:32;;;;;;;0.45;0.10;;;19.60;38.10;;;;;;5080596;28;20473;-84
2021/01/14 04:52:05;;;;;;;0.68;0.10;;;19.70;38.50;;;;;;5080897;28;20016;-86
2021/01/14 04:54:35;;;;;;;0.40;0.10;;;19.60;38.40;;;;;;5080708;28;20020;-85
2021/01/14 04:57:21;;;;;;;0.50;0.10;;;19.60;38.50;;;;;;5079851;28;20024;-86
2021/01/14 04:59:51;;;;;;;1.08;0.10;;;19.60;38.50;;;;;;5078308;28;20028;-86
2021/01/14 05:02:22;;;;;;;0.45;0.10;;;19.60;38.40;;;;;;5061726;28;20028;-85
2021/01/14 05:04:53;;;;;;;0.40;0.05;;;19.60;38.40;;;;;;5094762;28;20035;-85
2021/01/14 05:07:46;;;;;;;1.20;0.20;;;19.60;38.30;;;;;;5077877;28;20095;-85
2021/01/14 05:10:21;;;;;;;0.40;0.10;;;19.60;38.40;;;;;;5057385;28;20032;-86
2021/01/14 05:12:47;;;;;;;0.25;0.10;;;19.60;38.30;;;;;;5081319;28;20035;-85
2021/01/14 05:15:15;;;;;;;0.20;0.10;;;19.60;38.50;;;;;;5077299;28;20102;-85
2021/01/14 05:17:41;;;;;;;0.30;0.10;;;19.60;38.50;;;;;;5076165;28;20111;-85
2021/01/14 05:20:07;;;;;;;0.40;0.10;;;19.50;38.40;;;;;;5098692;28;20052;-86
2021/01/14 05:22:37;;;;;;;0.77;0.00;;;19.50;38.50;;;;;;5078742;28;20025;-84
2021/01/14 05:25:10;;;;;;;0.20;0.00;;;19.50;38.60;;;;;;5102718;28;20080;-85
2021/01/14 05:27:37;;;;;;;0.40;0.03;;;19.50;38.40;;;;;;5112205;28;20012;-83
2021/01/14 05:30:10;;;;;;;0.35;0.05;;;19.50;38.50;;;;;;5096105;28;20063;-82
2021/01/14 05:32:41;;;;;;;0.90;0.10;;;19.50;38.40;;;;;;5095183;28;20094;-85
2021/01/14 05:35:26;;;;;;;0.20;0.00;;;19.50;38.40;;;;;;5080208;28;20025;-84
2021/01/14 05:37:52;;;;;;;0.57;0.10;;;19.40;38.40;;;;;;5082283;28;20020;-85
2021/01/14 05:40:24;;;;;;;0.43;0.10;;;19.50;38.40;;;;;;5078311;28;20025;-84
2021/01/14 05:43:06;;;;;;;0.90;0.00;;;19.50;38.60;;;;;;5079856;28;20048;-84
2021/01/14 05:45:33;;;;;;;0.30;0.00;;;19.40;38.40;;;;;;5075660;28;20035;-86
2021/01/14 05:48:10;;;;;;;0.75;0.10;;;19.40;38.40;;;;;;5081037;28;20032;-86
2021/01/14 05:50:46;;;;;;;0.30;0.10;;;19.40;38.50;;;;;;5080847;28;20127;-86
2021/01/14 05:53:18;;;;;;;0.30;0.00;;;19.40;38.40;;;;;;5080222;28;20034;-86
2021/01/14 05:55:50;;;;;;;1.75;0.10;;;19.40;38.60;;;;;;5092673;28;20415;-86
2021/01/14 05:58:17;;;;;;;0.47;0.10;;;19.40;38.40;;;;;;5061869;28;20028;-85
2021/01/14 06:00:45;;;;;;;0.38;0.10;;;19.40;38.50;;;;;;5088902;28;20127;-84
2021/01/14 06:03:30;;;;;;;0.32;0.00;;;19.40;38.40;;;;;;5069286;28;20020;-86
2021/01/14 06:05:57;;;;;;;0.43;0.03;;;19.40;38.60;;;;;;5071583;28;20044;-84
2021/01/14 06:08:28;;;;;;;0.40;0.10;;;19.40;38.40;;;;;;5075068;28;20032;-85
2021/01/14 06:10:54;;;;;;;0.38;0.17;;;19.40;38.50;;;;;;5079497;28;20024;-86
2021/01/14 06:13:38;;;;;;;0.20;0.00;;;19.30;38.50;;;;;;5085679;28;20035;-85
2021/01/14 06:16:04;;;;;;;0.50;0.05;;;19.30;38.70;;;;;;5092329;28;20165;-87
2021/01/14 06:18:29;;;;;;;0.50;0.00;;;19.30;38.50;;;;;;5096032;28;20062;-85
2021/01/14 06:20:55;;;;;;;0.35;0.10;;;19.40;38.50;;;;;;5088378;28;20037;-84
2021/01/14 06:23:25;;;;;;;0.63;0.03;;;19.40;38.50;;;;;;5061802;28;20044;-86
2021/01/14 06:25:55;;;;;;;0.65;0.10;;;19.30;38.50;;;;;;5079029;28;20043;-87
2021/01/14 06:28:32;;;;;;;1.75;0.10;;;19.30;39.40;;;;;;5079684;28;20020;-86
2021/01/14 06:30:57;;;;;;;0.17;0.00;;;19.40;39.10;;;;;;5108403;28;20021;-86
2021/01/14 06:33:25;;;;;;;0.20;0.00;;;19.50;39.00;;;;;;5071235;28;20781;-86
2021/01/14 06:36:02;;;;;;;0.95;0.10;;;19.70;38.70;;;;;;5088855;28;20077;-86
2021/01/14 06:38:39;;;;;;;0.32;0.00;;;19.80;38.50;;;;;;5075961;28;20039;-85
2021/01/14 06:41:17;;;;;;;0.20;0.00;;;19.90;38.20;;;;;;5079254;28;20039;-85
2021/01/14 06:43:44;;;;;;;0.20;0.00;;;20.00;38.10;;;;;;5090922;28;20557;-85
2021/01/14 06:46:21;;;;;;;0.10;0.00;;;20.10;38.10;;;;;;5076486;28;20135;-86
2021/01/14 06:49:04;;;;;;;0.20;0.00;;;20.10;38.00;;;;;;5083851;28;20050;-85
2021/01/14 06:51:53;;;;;;;0.30;0.00;;;20.20;37.90;;;;;;5075850;28;20024;-85
2021/01/14 06:54:20;;;;;;;0.43;0.05;;;20.20;37.90;;;;;;5074602;28;20051;-84
2021/01/14 06:57:14;;;;;;;0.80;0.03;;;20.20;37.90;;;;;;5079120;28;20828;-84
2021/01/14 06:59:41;;;;;;;0.22;0.00;;;20.30;37.80;;;;;;5074093;28;20036;-86
2021/01/14 07:02:06;;;;;;;0.30;0.05;;;20.30;37.80;;;;;;5096864;28;20036;-86
2021/01/14 07:04:44;;;;;;;0.32;0.00;;;20.40;37.80;;;;;;5073226;28;20040;-87
2021/01/14 07:07:25;;;;;;;0.43;0.00;;;20.40;37.80;;;;;;5079354;28;20549;-83
2021/01/14 07:10:11;;;;;;;0.15;0.00;;;20.40;37.80;;;;;;5077100;28;20056;-87
2021/01/14 07:12:42;;;;;;;0.15;0.00;;;20.40;37.80;;;;;;5098295;28;20024;-86
2021/01/14 07:15:10;;;;;;;0.20;0.00;;;20.40;37.70;;;;;;5074187;28;20466;-86
2021/01/14 07:17:39;;;;;;;0.20;0.00;;;20.50;37.70;;;;;;5076279;28;20020;-86
2021/01/14 07:20:09;;;;;;;0.30;0.00;;;20.50;37.70;;;;;;5078548;28;20032;-87
2021/01/14 07:22:44;;;;;;;0.88;0.20;;;20.50;37.70;;;;;;5096724;28;20028;-88
2021/01/14 07:25:11;;;;;;;3.53;0.93;;;20.50;37.70;;;;;;5079062;28;20028;-84
2021/01/14 07:27:37;;;;;;;4.68;1.63;;;20.50;37.70;;;;;;5088274;28;20024;-87
2021/01/14 07:30:05;;;;;;;8.40;2.75;;;20.50;37.70;;;;;;5090292;28;20405;-88
2021/01/14 07:32:49;;;;;;;7.32;2.30;;;20.50;37.60;;;;;;5066038;28;20027;-87
2021/01/14 07:35:34;;;;;;;5.90;1.65;;;20.50;37.50;;;;;;5083048;28;20047;-86
2021/01/14 07:38:00;;;;;;;7.88;2.95;;;20.50;37.50;;;;;;5083922;28;20107;-86
2021/01/14 07:40:33;;;;;;;10.13;2.10;;;20.40;37.40;;;;;;5087174;28;20080;-86
2021/01/14 07:43:02;;;;;;;7.72;2.05;;;20.40;37.30;;;;;;5087280;28;20024;-83
2021/01/14 07:45:28;;;;;;;10.77;3.13;;;20.40;37.20;;;;;;5085966;28;20039;-84
2021/01/14 07:47:53;;;;;;;6.53;1.90;;;20.40;37.20;;;;;;5102477;28;20024;-85
2021/01/14 07:50:23;;;;;;;5.65;2.75;;;20.30;37.30;;;;;;5081784;28;20028;-85
2021/01/14 07:52:57;;;;;;;8.95;3.00;;;20.30;37.50;;;;;;5066340;28;20119;-84
2021/01/14 07:55:35;;;;;;;6.32;2.38;;;20.30;37.60;;;;;;5093632;28;20021;-82
2021/01/14 07:58:20;;;;;;;7.03;2.15;;;20.20;37.70;;;;;;5086137;28;20115;-84
2021/01/14 08:00:59;;;;;;;7.10;2.30;;;20.20;37.70;;;;;;5085894;28;20058;-83
2021/01/14 08:03:32;;;;;;;6.75;1.70;;;20.20;37.80;;;;;;5085730;28;20057;-86
2021/01/14 08:05:59;;;;;;;8.85;2.63;;;20.20;37.80;;;;;;5086162;28;20139;-87
2021/01/14 08:08:28;;;;;;;7.88;2.22;;;20.10;37.90;;;;;;5084117;28;20032;-86
2021/01/14 08:11:07;;;;;;;4.55;2.72;;;20.10;37.90;;;;;;5080852;28;20529;-87
2021/01/14 08:14:08;;;;;;;6.78;2.03;;;20.10;38.00;;;;;;5082038;28;20515;-81
2021/01/14 08:16:39;;;;;;;7.57;2.22;;;20.10;38.00;;;;;;5080256;28;20055;-83
2021/01/14 08:19:21;;;;;;;4.28;1.85;;;20.10;38.00;;;;;;5090773;28;20028;-84
2021/01/14 08:21:59;;;;;;;5.13;1.83;;;20.10;38.00;;;;;;5073307;28;20489;-83
2021/01/14 08:24:44;;;;;;;6.15;2.47;;;20.00;38.10;;;;;;5097696;28;20020;-85
2021/01/14 08:27:36;;;;;;;6.55;2.20;;;20.00;38.10;;;;;;5076385;28;20025;-84
2021/01/14 08:30:18;;;;;;;6.07;2.55;;;20.00;38.10;;;;;;5086840;28;20115;-85
2021/01/14 08:32:45;;;;;;;;;;;20.00;38.20;;;;;;5077274;28;20040;-84
2021/01/14 08:35:31;;;;;;;7.05;2.88;;;20.00;38.20;;;;;;5093374;28;19909;-87
2021/01/14 08:37:58;;;;;;;10.77;2.85;;;19.90;38.60;;;;;;5096630;28;20055;-81
2021/01/14 08:40:27;;;;;;;3.78;1.83;;;20.00;38.10;;;;;;5076593;28;20028;-84
2021/01/14 08:43:08;;;;;;;4.20;2.10;;;20.00;38.10;;;;;;5078551;28;20044;-84
2021/01/14 08:45:49;;;;;;;7.28;2.90;;;20.20;38.10;;;;;;5068314;28;20036;-83
2021/01/14 08:48:22;;;;;;;9.35;2.35;;;20.30;38.00;;;;;;5072819;28;20031;-85
2021/01/14 08:50:54;;;;;;;5.90;3.00;;;20.40;37.90;;;;;;5098955;28;20051;-82
2021/01/14 08:53:19;;;;;;;9.18;3.53;;;20.50;38.10;;;;;;5085143;28;20047;-84
2021/01/14 08:55:53;;;;;;;6.68;2.53;;;20.60;38.10;;;;;;5078765;28;20027;-81
2021/01/14 08:58:19;;;;;;;6.50;3.22;;;20.60;38.00;;;;;;5098892;28;20036;-85
2021/01/14 09:00:48;;;;;;;6.05;3.20;;;20.60;37.90;;;;;;5078824;28;20031;-82
2021/01/14 09:03:14;;;;;;;7.35;3.03;;;20.70;37.90;;;;;;5070537;28;20051;-85
2021/01/14 09:05:44;;;;;;;9.85;4.35;;;20.80;37.80;;;;;;5089822;28;20055;-82
2021/01/14 09:08:12;;;;;;;9.38;4.00;;;21.00;38.30;;;;;;5098675;28;20120;-85
2021/01/14 09:10:59;;;;;;;6.85;3.50;;;21.00;37.80;;;;;;5078715;28;20421;-84
2021/01/14 09:13:30;;;;;;;9.55;4.40;;;21.10;37.80;;;;;;5079779;28;20035;-82
2021/01/14 09:15:57;;;;;;;8.30;4.10;;;21.10;37.70;;;;;;5082830;28;20024;-81
2021/01/14 09:18:31;;;;;;;12.35;4.43;;;21.20;37.70;;;;;;5082012;28;20081;-85
2021/01/14 09:20:58;;;;;;;9.48;5.47;;;21.20;37.70;;;;;;5078536;28;20024;-86
2021/01/14 09:23:27;;;;;;;8.95;4.82;;;21.10;37.70;;;;;;5074911;28;20400;-83
2021/01/14 09:25:56;;;;;;;12.98;5.30;;;21.10;37.90;;;;;;5075368;28;20028;-81
2021/01/14 09:28:24;;;;;;;11.32;5.00;;;21.10;37.80;;;;;;5074863;28;20031;-80
2021/01/14 09:30:59;;;;;;;7.63;4.85;;;21.00;38.50;;;;;;5076426;28;20066;-79
2021/01/14 09:33:27;;;;;;;10.45;5.22;;;21.00;38.00;;;;;;5073603;28;20024;-82
2021/01/14 09:36:01;;;;;;;6.57;4.45;;;21.00;38.20;;;;;;5094548;28;20028;-82
2021/01/14 09:38:27;;;;;;;10.25;4.93;;;21.00;38.20;;;;;;5073950;28;20070;-80
2021/01/14 09:40:54;;;;;;;9.73;4.80;;;21.10;38.30;;;;;;5074710;28;20028;-81
2021/01/14 09:43:24;;;;;;;9.85;5.13;;;21.10;38.30;;;;;;5070894;28;20035;-82
2021/01/14 09:45:50;;;;;;;7.57;5.05;;;21.00;38.30;;;;;;5093060;28;20083;-82
2021/01/14 09:48:19;;;;;;;9.80;4.97;;;21.00;38.50;;;;;;5095504;28;20063;-83
2021/01/14 09:50:44;;;;;;;9.50;4.22;;;21.10;38.70;;;;;;5071317;28;20035;-85
2021/01/14 09:53:10;;;;;;;9.07;5.43;;;21.10;38.60;;;;;;5081195;28;20123;-84
2021/01/14 09:55:37;;;;;;;10.77;4.97;;;21.10;38.70;;;;;;5078158;28;20024;-84
2021/01/14 09:58:03;;;;;;;9.40;5.28;;;21.00;39.20;;;;;;5066138;28;20074;-85
2021/01/14 10:00:31;;;;;;;7.38;4.60;;;21.00;38.80;;;;;;5078658;28;20030;-83
2021/01/14 10:03:08;;;;;;;8.25;4.22;;;21.00;38.90;;;;;;5086551;28;20032;-83
2021/01/14 10:05:36;;;;;;;6.72;4.07;;;21.00;38.90;;;;;;5089606;28;20475;-83
2021/01/14 10:08:12;;;;;;;7.05;5.05;;;21.00;38.90;;;;;;5081197;28;20125;-87
2021/01/14 10:10:39;;;;;;;8.90;4.78;;;21.00;39.00;;;;;;5078609;28;20028;-85
2021/01/14 10:13:04;;;;;;;9.57;4.55;;;20.90;39.00;;;;;;5069541;28;20452;-85
2021/01/14 10:15:30;;;;;;;10.52;5.05;;;20.90;39.10;;;;;;5076567;28;20056;-87
2021/01/14 10:17:56;;;;;;;8.35;4.35;;;20.90;39.10;;;;;;5073028;28;20016;-86
2021/01/14 10:20:21;;;;;;;8.57;4.50;;;20.90;39.20;;;;;;5079589;28;20062;-88
2021/01/14 10:22:49;;;;;;;10.50;4.57;;;20.90;39.20;;;;;;5061909;28;20082;-82
2021/01/14 10:25:16;;;;;;;8.00;4.45;;;20.90;39.30;;;;;;5093675;28;20423;-88
2021/01/14 10:27:56;;;;;;;7.25;4.32;;;21.00;39.20;;;;;;5070204;28;20077;-87
2021/01/14 10:30:23;;;;;;;5.93;4.00;;;20.90;39.30;;;;;;5077019;28;20497;-83
2021/01/14 10:32:49;;;;;;;8.27;4.85;;;21.00;39.40;;;;;;5097829;28;20020;-84
2021/01/14 10:35:25;;;;;;;9.13;4.95;;;20.90;39.30;;;;;;5095376;28;20027;-84
2021/01/14 10:38:20;;;;;;;8.80;4.50;;;20.90;39.40;;;;;;5076906;28;20027;-82
2021/01/14 10:40:48;;;;;;;9.27;5.05;;;20.90;39.40;;;;;;5066794;28;20081;-81
2021/01/14 10:43:14;;;;;;;9.98;4.60;;;20.90;39.50;;;;;;5082833;28;20088;-82
2021/01/14 10:45:41;;;;;;;8.52;4.57;;;20.90;39.40;;;;;;5078158;28;20035;-85
2021/01/14 10:48:11;;;;;;;8.70;4.50;;;20.90;39.40;;;;;;5074892;28;20035;-84
2021/01/14 10:50:51;;;;;;;9.20;4.78;;;20.90;39.60;;;;;;5080070;28;20020;-86
2021/01/14 10:53:31;;;;;;;8.68;4.88;;;20.80;39.60;;;;;;5078596;28;20096;-81
2021/01/14 10:56:07;;;;;;;6.60;4.72;;;20.80;39.70;;;;;;5072591;28;20063;-83
2021/01/14 10:58:34;;;;;;;9.80;4.32;;;20.80;39.70;;;;;;5067282;28;20038;-86
2021/01/14 11:01:00;;;;;;;10.68;4.68;;;20.80;39.60;;;;;;5069993;28;20036;-86
2021/01/14 11:03:28;;;;;;;7.65;4.75;;;20.80;39.80;;;;;;5071594;28;20035;-84
2021/01/14 11:05:59;;;;;;;7.20;4.25;;;20.80;39.90;;;;;;5076732;28;20039;-84
2021/01/14 11:08:41;;;;;;;6.57;3.08;;;20.80;39.80;;;;;;5081771;28;20040;-83
2021/01/14 11:11:09;;;;;;;4.22;3.00;;;20.90;39.90;;;;;;5074971;28;20040;-83
2021/01/14 11:13:55;;;;;;;5.40;3.95;;;21.10;40.00;;;;;;5074486;28;20020;-80
2021/01/14 11:16:25;;;;;;;6.82;3.22;;;21.30;39.30;;;;;;5080581;28;20028;-80
2021/01/14 11:18:56;;;;;;;6.25;3.60;;;21.30;39.00;;;;;;5094293;28;20016;-81
2021/01/14 11:21:33;;;;;;;7.07;3.53;;;21.40;38.80;;;;;;5080901;28;20031;-81
2021/01/14 11:24:00;;;;;;;6.40;3.53;;;21.40;38.50;;;;;;5073105;28;20044;-85
2021/01/14 11:26:26;;;;;;;6.03;3.80;;;21.50;38.50;;;;;;5077675;28;20096;-84
2021/01/14 11:28:52;;;;;;;5.93;3.72;;;21.60;38.50;;;;;;5091203;28;20516;-85
2021/01/14 11:31:20;;;;;;;4.30;3.13;;;21.70;38.50;;;;;;5078069;28;20024;-84
2021/01/14 11:33:46;;;;;;;6.25;3.92;;;21.70;38.40;;;;;;5072930;28;20024;-86
2021/01/14 11:36:14;;;;;;;5.40;2.90;;;21.80;38.40;;;;;;5076493;28;20074;-83
2021/01/14 11:38:42;;;;;;;6.85;3.30;;;21.80;38.40;;;;;;5089918;28;20496;-85
2021/01/14 11:41:08;;;;;;;4.82;2.97;;;21.80;38.40;;;;;;5063868;28;20032;-84
2021/01/14 11:43:35;;;;;;;6.32;2.75;;;21.80;38.40;;;;;;5098388;28;20052;-86
2021/01/14 11:46:00;;;;;;;5.97;3.20;;;21.80;38.50;;;;;;5091037;28;20036;-85
2021/01/14 11:48:26;;;;;;;5.20;3.17;;;21.80;38.60;;;;;;5073058;28;20028;-86
2021/01/14 11:50:52;;;;;;;5.32;2.95;;;21.80;38.70;;;;;;5072144;28;20025;-85
2021/01/14 11:53:18;;;;;;;4.90;2.78;;;21.70;38.80;;;;;;5075017;28;20024;-83
2021/01/14 11:55:44;;;;;;;6.22;3.53;;;21.70;38.90;;;;;;5066969;28;20123;-84
2021/01/14 11:58:09;;;;;;;5.03;3.10;;;21.70;39.00;;;;;;5098476;28;20090;-84
2021/01/14 12:00:35;;;;;;;5.85;2.95;;;21.70;39.20;;;;;;5080775;28;20039;-86
2021/01/14 12:03:04;;;;;;;4.65;3.05;;;21.60;39.20;;;;;;5091000;28;20004;-84
2021/01/14 12:05:29;;;;;;;4.78;2.53;;;21.60;39.30;;;;;;5093908;28;20016;-83
2021/01/14 12:07:55;;;;;;;4.22;3.10;;;21.60;39.40;;;;;;5081497;28;20328;-88
2021/01/14 12:10:21;;;;;;;4.85;2.80;;;21.50;39.40;;;;;;5082120;28;20040;-87
2021/01/14 12:12:46;;;;;;;4.25;2.88;;;21.50;39.60;;;;;;5109415;28;20119;-83
2021/01/14 12:15:12;;;;;;;4.63;2.97;;;21.40;39.60;;;;;;5070701;28;20035;-82
2021/01/14 12:17:38;;;;;;;3.65;2.72;;;21.40;39.60;;;;;;5067025;28;20058;-82
2021/01/14 12:20:04;;;;;;;4.90;2.85;;;21.40;39.50;;;;;;5087112;28;20029;-83
2021/01/14 12:22:32;;;;;;;5.82;2.58;;;21.40;39.60;;;;;;5078422;28;20096;-85
2021/01/14 12:24:57;;;;;;;5.72;2.97;;;21.40;39.60;;;;;;5074252;28;20035;-84
2021/01/14 12:27:23;;;;;;;4.00;2.70;;;21.40;39.70;;;;;;5065840;28;20071;-82
2021/01/14 12:29:49;;;;;;;4.93;3.13;;;21.40;39.60;;;;;;5077646;28;20020;-86
2021/01/14 12:32:14;;;;;;;3.38;2.63;;;21.40;39.60;;;;;;5086649;28;20021;-86
2021/01/14 12:34:40;;;;;;;4.45;3.00;;;21.30;39.70;;;;;;5066878;28;20027;-86
2021/01/14 12:37:06;;;;;;;3.60;2.42;;;21.30;39.70;;;;;;5070803;28;20091;-79
2021/01/14 12:39:31;;;;;;;4.13;2.53;;;21.30;39.60;;;;;;5100435;28;20078;-81
2021/01/14 12:41:58;;;;;;;2.83;2.08;;;21.20;39.60;;;;;;5066924;28;20062;-81
2021/01/14 12:44:23;;;;;;;4.35;2.22;;;21.10;39.80;;;;;;5067356;28;20074;-80
2021/01/14 12:46:49;;;;;;;3.95;2.88;;;21.10;39.80;;;;;;5086989;28;20450;-81
2021/01/14 12:49:17;;;;;;;4.00;2.67;;;21.00;39.80;;;;;;5082605;28;20028;-80
2021/01/14 12:51:43;;;;;;;3.90;2.70;;;21.00;39.80;;;;;;5083435;28;20021;-81
2021/01/14 12:54:09;;;;;;;2.97;2.10;;;21.00;39.80;;;;;;5072076;28;20028;-81
2021/01/14 12:56:36;;;;;;;3.53;2.30;;;21.00;39.80;;;;;;5071581;28;20135;-81
2021/01/14 12:59:03;;;;;;;3.03;1.88;;;20.90;39.60;;;;;;5074738;28;20028;-81